LiveATC.Net - Listen to live air traffic control over the Internet!


ICAO: UNOO  IATA: OMS   Airport: Omsk Airport
City: Omsk
Country: Russia   Continent: Asia
UNOO METAR Weather: UNOO 241500Z 16003MPS 8000 SCT014 BKN033CB M02/M02 Q0998 R25/390135 NOSIG RMK QFE740
UNOO Flight Activity (FlightAware)

UNOO Gnd/Tower/App
Feed Status: UP   Listeners: 1
Listen in your browser - HTML5 player (in browser, HTML5)
Click here to listen with your own player (launches your MP3 player)
Archive Access: UNOO Gnd/Tower/App
FacilityFrequency
Aerodrom Kalachevo123.300
Aerodrom Marianovka123.000
Emergency/Guard121.500
Novosibirsk Control (Sector 7)132.500
Novosibirsk Control (Sector 8)132.900
Omsk Approach (FL060-FL265)131.200
Omsk Apron118.800
Omsk Start/Radar119.000
Omsk Taxiing121.700
Omsk Transit131.700
UNOS/OMSK-Severny124.000

NOTICE

Unauthorized use prohibited. See LiveATC.net Terms of Service


Airport/ARTCC Code
Frequency Search
(e.g., 124.400, 128.75)
Site-wide search
 


Browse Feeds
Top 50 Feeds
Coverage Map
Bad Weather Areas

LiveATC FAQ
Offer LiveATC feed
Contact LiveATC.net
Press Inquiries

LiveATC on iPhone
LiveATC on Android

Windows Phone
Windows 8/10

LiveATC Mobile
(Mobile browser)

ATC Audio Archives
Interesting Recordings

LiveATC Forums


Home Page
About LiveATC.net
Make a Donation
Terms of Use
Privacy Policy

Canadian Air Freqs

AIRMETs/SIGMETs

FAA Airport Status
Nat'l Airspace Status
Arrival Demand Charts


Server Software By:
Icecast.org
Liquidsoap